sensor_id;sensor_type;location;lat;lon;timestamp;pressure;altitude;pressure_sealevel;temperature;humidity
56582;BME280;42463;52.214;21.238;2022-11-15T00:02:43;100806.89;;;8.93;66.83
56582;BME280;42463;52.214;21.238;2022-11-15T00:05:27;100806.46;;;8.93;66.73
56582;BME280;42463;52.214;21.238;2022-11-15T00:08:11;100803.00;;;8.94;66.70
56582;BME280;42463;52.214;21.238;2022-11-15T00:10:59;100797.96;;;8.91;66.93
56582;BME280;42463;52.214;21.238;2022-11-15T00:13:42;100794.77;;;8.93;66.95
56582;BME280;42463;52.214;21.238;2022-11-15T00:16:26;100790.20;;;8.95;66.96
56582;BME280;42463;52.214;21.238;2022-11-15T00:19:10;100784.33;;;9.01;67.02
56582;BME280;42463;52.214;21.238;2022-11-15T00:21:53;100780.63;;;9.00;66.82
56582;BME280;42463;52.214;21.238;2022-11-15T00:24:37;100779.17;;;9.00;66.96
56582;BME280;42463;52.214;21.238;2022-11-15T00:27:22;100775.40;;;9.03;67.06
56582;BME280;42463;52.214;21.238;2022-11-15T00:30:08;100769.45;;;9.01;66.87
56582;BME280;42463;52.214;21.238;2022-11-15T00:32:54;100769.45;;;8.99;66.99
56582;BME280;42463;52.214;21.238;2022-11-15T00:35:38;100763.39;;;8.96;66.80
56582;BME280;42463;52.214;21.238;2022-11-15T00:38:22;100761.66;;;8.96;67.24
56582;BME280;42463;52.214;21.238;2022-11-15T00:41:06;100759.29;;;8.92;67.13
56582;BME280;42463;52.214;21.238;2022-11-15T00:43:50;100756.44;;;8.93;67.34
56582;BME280;42463;52.214;21.238;2022-11-15T00:46:33;100750.09;;;8.92;67.22
56582;BME280;42463;52.214;21.238;2022-11-15T00:49:17;100748.34;;;8.89;67.42
56582;BME280;42463;52.214;21.238;2022-11-15T00:52:01;100740.40;;;8.89;67.35
56582;BME280;42463;52.214;21.238;2022-11-15T00:54:45;100736.48;;;8.89;67.46
56582;BME280;42463;52.214;21.238;2022-11-15T00:57:28;100731.40;;;8.91;67.55
56582;BME280;42463;52.214;21.238;2022-11-15T01:00:13;100731.58;;;8.96;67.53
56582;BME280;42463;52.214;21.238;2022-11-15T01:02:56;100717.55;;;8.98;67.26
56582;BME280;42463;52.214;21.238;2022-11-15T01:05:40;100710.61;;;8.93;67.16
56582;BME280;42463;52.214;21.238;2022-11-15T01:08:24;100707.98;;;8.91;67.33
56582;BME280;42463;52.214;21.238;2022-11-15T01:11:10;100709.64;;;8.93;67.68
56582;BME280;42463;52.214;21.238;2022-11-15T01:13:53;100700.73;;;8.94;67.48
56582;BME280;42463;52.214;21.238;2022-11-15T01:16:37;100703.27;;;8.96;67.50
56582;BME280;42463;52.214;21.238;2022-11-15T01:19:21;100701.70;;;8.93;67.18
56582;BME280;42463;52.214;21.238;2022-11-15T01:22:05;100697.10;;;8.87;67.24
56582;BME280;42463;52.214;21.238;2022-11-15T01:24:50;100695.35;;;8.83;67.41
56582;BME280;42463;52.214;21.238;2022-11-15T01:27:33;100694.52;;;8.85;67.63
56582;BME280;42463;52.214;21.238;2022-11-15T01:30:17;100692.48;;;8.85;67.54
56582;BME280;42463;52.214;21.238;2022-11-15T01:33:01;100687.91;;;8.87;67.36
56582;BME280;42463;52.214;21.238;2022-11-15T01:35:44;100680.80;;;8.86;67.28
56582;BME280;42463;52.214;21.238;2022-11-15T01:38:28;100673.09;;;8.85;67.43
56582;BME280;42463;52.214;21.238;2022-11-15T01:41:17;100672.52;;;8.86;67.70
56582;BME280;42463;52.214;21.238;2022-11-15T01:44:37;100667.17;;;8.89;67.60
56582;BME280;42463;52.214;21.238;2022-11-15T01:47:25;100655.84;;;8.92;67.99
56582;BME280;42463;52.214;21.238;2022-11-15T01:50:14;100653.76;;;8.96;67.61
56582;BME280;42463;52.214;21.238;2022-11-15T01:52:58;100645.80;;;8.99;67.40
56582;BME280;42463;52.214;21.238;2022-11-15T01:55:42;100642.83;;;9.02;67.52
56582;BME280;42463;52.214;21.238;2022-11-15T01:58:26;100632.76;;;9.04;67.22
56582;BME280;42463;52.214;21.238;2022-11-15T02:01:45;100630.70;;;8.99;66.84
56582;BME280;42463;52.214;21.238;2022-11-15T02:04:31;100638.92;;;8.93;67.19
56582;BME280;42463;52.214;21.238;2022-11-15T02:07:17;100654.06;;;8.83;67.06
56582;BME280;42463;52.214;21.238;2022-11-15T02:10:04;100641.14;;;8.69;67.25
56582;BME280;42463;52.214;21.238;2022-11-15T02:12:50;100638.81;;;8.69;67.97
56582;BME280;42463;52.214;21.238;2022-11-15T02:15:40;100632.98;;;8.67;67.68
56582;BME280;42463;52.214;21.238;2022-11-15T02:18:30;100627.73;;;8.62;67.86
56582;BME280;42463;52.214;21.238;2022-11-15T02:21:24;100629.98;;;8.58;67.89
56582;BME280;42463;52.214;21.238;2022-11-15T02:24:37;100627.93;;;8.59;68.26
56582;BME280;42463;52.214;21.238;2022-11-15T02:30:41;100614.83;;;8.68;68.24
56582;BME280;42463;52.214;21.238;2022-11-15T02:33:35;100616.08;;;8.65;68.06
56582;BME280;42463;52.214;21.238;2022-11-15T02:36:31;100612.39;;;8.57;68.22
56582;BME280;42463;52.214;21.238;2022-11-15T02:39:23;100613.88;;;8.56;68.52
56582;BME280;42463;52.214;21.238;2022-11-15T02:42:13;100610.31;;;8.59;68.57
56582;BME280;42463;52.214;21.238;2022-11-15T02:45:17;100616.42;;;8.64;68.73
56582;BME280;42463;52.214;21.238;2022-11-15T02:48:02;100617.02;;;8.64;68.41
56582;BME280;42463;52.214;21.238;2022-11-15T02:50:48;100614.10;;;8.62;68.42
56582;BME280;42463;52.214;21.238;2022-11-15T02:53:32;100610.10;;;8.64;68.55
56582;BME280;42463;52.214;21.238;2022-11-15T02:56:16;100607.79;;;8.68;68.57
56582;BME280;42463;52.214;21.238;2022-11-15T02:59:13;100607.30;;;8.65;68.18
56582;BME280;42463;52.214;21.238;2022-11-15T03:02:14;100604.79;;;8.59;68.30
56582;BME280;42463;52.214;21.238;2022-11-15T03:05:07;100591.52;;;8.56;68.65
56582;BME280;42463;52.214;21.238;2022-11-15T03:07:57;100591.70;;;8.56;68.51
56582;BME280;42463;52.214;21.238;2022-11-15T03:10:49;100590.60;;;8.51;68.52
56582;BME280;42463;52.214;21.238;2022-11-15T03:13:42;100587.96;;;8.49;68.75
56582;BME280;42463;52.214;21.238;2022-11-15T03:16:33;100586.45;;;8.54;69.00
56582;BME280;42463;52.214;21.238;2022-11-15T03:19:26;100578.05;;;8.58;69.11
56582;BME280;42463;52.214;21.238;2022-11-15T03:22:14;100574.08;;;8.57;68.40
56582;BME280;42463;52.214;21.238;2022-11-15T03:25:03;100576.75;;;8.55;68.63
56582;BME280;42463;52.214;21.238;2022-11-15T03:27:52;100576.05;;;8.48;68.55
56582;BME280;42463;52.214;21.238;2022-11-15T03:30:38;100568.34;;;8.46;68.92
56582;BME280;42463;52.214;21.238;2022-11-15T03:33:23;100562.34;;;8.47;68.93
56582;BME280;42463;52.214;21.238;2022-11-15T03:36:08;100554.47;;;8.48;69.09
56582;BME280;42463;52.214;21.238;2022-11-15T03:38:50;100548.27;;;8.46;69.18
56582;BME280;42463;52.214;21.238;2022-11-15T03:41:42;100541.49;;;8.48;69.29
56582;BME280;42463;52.214;21.238;2022-11-15T03:44:35;100531.12;;;8.46;68.91
56582;BME280;42463;52.214;21.238;2022-11-15T03:47:23;100533.66;;;8.44;68.93
56582;BME280;42463;52.214;21.238;2022-11-15T03:50:12;100532.83;;;8.37;69.10
56582;BME280;42463;52.214;21.238;2022-11-15T03:52:56;100527.79;;;8.27;68.78
56582;BME280;42463;52.214;21.238;2022-11-15T03:55:40;100522.30;;;8.21;69.35
56582;BME280;42463;52.214;21.238;2022-11-15T03:58:23;100516.87;;;8.20;69.37
56582;BME280;42463;52.214;21.238;2022-11-15T04:01:07;100513.15;;;8.21;69.42
56582;BME280;42463;52.214;21.238;2022-11-15T04:03:51;100511.73;;;8.20;69.58
56582;BME280;42463;52.214;21.238;2022-11-15T04:06:34;100508.86;;;8.19;70.02
56582;BME280;42463;52.214;21.238;2022-11-15T04:09:18;100507.20;;;8.15;69.26
56582;BME280;42463;52.214;21.238;2022-11-15T04:12:01;100505.30;;;8.15;69.85
56582;BME280;42463;52.214;21.238;2022-11-15T04:14:45;100507.42;;;8.18;69.84
56582;BME280;42463;52.214;21.238;2022-11-15T04:17:50;100508.14;;;8.22;69.81
56582;BME280;42463;52.214;21.238;2022-11-15T04:20:34;100501.53;;;8.20;69.72
56582;BME280;42463;52.214;21.238;2022-11-15T04:23:35;100500.04;;;8.22;69.86
56582;BME280;42463;52.214;21.238;2022-11-15T04:26:37;100497.57;;;8.20;69.67
56582;BME280;42463;52.214;21.238;2022-11-15T04:29:20;100496.28;;;8.23;69.66
56582;BME280;42463;52.214;21.238;2022-11-15T04:32:19;100492.66;;;8.23;69.82
56582;BME280;42463;52.214;21.238;2022-11-15T04:35:03;100494.38;;;8.27;69.67
56582;BME280;42463;52.214;21.238;2022-11-15T04:37:46;100492.91;;;8.32;69.50
56582;BME280;42463;52.214;21.238;2022-11-15T04:40:30;100494.08;;;8.31;69.34
56582;BME280;42463;52.214;21.238;2022-11-15T04:43:13;100486.55;;;8.30;69.32
56582;BME280;42463;52.214;21.238;2022-11-15T04:45:57;100488.39;;;8.25;69.28
56582;BME280;42463;52.214;21.238;2022-11-15T04:48:42;100483.58;;;8.20;69.15
56582;BME280;42463;52.214;21.238;2022-11-15T04:51:26;100487.27;;;8.18;69.07
56582;BME280;42463;52.214;21.238;2022-11-15T04:54:09;100479.26;;;8.18;69.26
56582;BME280;42463;52.214;21.238;2022-11-15T04:56:53;100477.83;;;8.09;69.02
56582;BME280;42463;52.214;21.238;2022-11-15T04:59:36;100475.08;;;8.05;69.31
56582;BME280;42463;52.214;21.238;2022-11-15T05:02:20;100475.65;;;8.04;69.72
56582;BME280;42463;52.214;21.238;2022-11-15T05:05:03;100474.00;;;8.07;69.86
56582;BME280;42463;52.214;21.238;2022-11-15T05:07:47;100472.27;;;8.05;69.55
56582;BME280;42463;52.214;21.238;2022-11-15T05:10:30;100476.26;;;8.07;69.83
56582;BME280;42463;52.214;21.238;2022-11-15T05:13:13;100470.71;;;8.10;69.88
56582;BME280;42463;52.214;21.238;2022-11-15T05:15:57;100473.30;;;8.10;69.68
56582;BME280;42463;52.214;21.238;2022-11-15T05:18:41;100468.30;;;8.06;69.91
56582;BME280;42463;52.214;21.238;2022-11-15T05:21:24;100460.70;;;8.10;70.20
56582;BME280;42463;52.214;21.238;2022-11-15T05:24:10;100459.23;;;8.12;69.89
56582;BME280;42463;52.214;21.238;2022-11-15T05:26:55;100458.32;;;8.14;70.18
56582;BME280;42463;52.214;21.238;2022-11-15T05:29:39;100455.58;;;8.15;69.94
56582;BME280;42463;52.214;21.238;2022-11-15T05:32:23;100455.31;;;8.13;69.69
56582;BME280;42463;52.214;21.238;2022-11-15T05:35:08;100454.61;;;8.13;69.82
56582;BME280;42463;52.214;21.238;2022-11-15T05:37:55;100452.17;;;8.12;70.04
56582;BME280;42463;52.214;21.238;2022-11-15T05:40:38;100456.05;;;8.17;70.30
56582;BME280;42463;52.214;21.238;2022-11-15T05:43:22;100454.88;;;8.18;69.87
56582;BME280;42463;52.214;21.238;2022-11-15T05:46:06;100457.33;;;8.18;69.79
56582;BME280;42463;52.214;21.238;2022-11-15T05:48:51;100456.41;;;8.16;69.88
56582;BME280;42463;52.214;21.238;2022-11-15T05:51:36;100456.09;;;8.16;69.89
56582;BME280;42463;52.214;21.238;2022-11-15T05:54:21;100457.45;;;8.14;69.61
56582;BME280;42463;52.214;21.238;2022-11-15T05:57:06;100459.28;;;8.11;69.75
56582;BME280;42463;52.214;21.238;2022-11-15T05:59:49;100460.33;;;8.07;69.84
56582;BME280;42463;52.214;21.238;2022-11-15T06:02:33;100461.64;;;8.06;69.88
56582;BME280;42463;52.214;21.238;2022-11-15T06:05:17;100458.69;;;7.99;69.88
56582;BME280;42463;52.214;21.238;2022-11-15T06:08:01;100459.30;;;7.95;70.01
56582;BME280;42463;52.214;21.238;2022-11-15T06:10:44;100457.38;;;7.91;70.14
56582;BME280;42463;52.214;21.238;2022-11-15T06:13:28;100456.75;;;7.89;70.61
56582;BME280;42463;52.214;21.238;2022-11-15T06:16:11;100454.66;;;7.90;70.51
56582;BME280;42463;52.214;21.238;2022-11-15T06:18:56;100458.23;;;7.86;70.27
56582;BME280;42463;52.214;21.238;2022-11-15T06:21:39;100457.88;;;7.85;70.67
56582;BME280;42463;52.214;21.238;2022-11-15T06:24:24;100461.19;;;7.86;70.85
56582;BME280;42463;52.214;21.238;2022-11-15T06:27:08;100465.44;;;7.91;71.02
56582;BME280;42463;52.214;21.238;2022-11-15T06:29:51;100465.35;;;7.97;70.95
56582;BME280;42463;52.214;21.238;2022-11-15T06:32:35;100460.97;;;7.99;70.67
56582;BME280;42463;52.214;21.238;2022-11-15T06:35:18;100454.24;;;8.01;70.67
56582;BME280;42463;52.214;21.238;2022-11-15T06:38:06;100456.39;;;8.00;70.48
56582;BME280;42463;52.214;21.238;2022-11-15T06:40:50;100458.52;;;7.97;70.59
56582;BME280;42463;52.214;21.238;2022-11-15T06:43:34;100465.77;;;7.99;71.09
56582;BME280;42463;52.214;21.238;2022-11-15T06:46:18;100467.27;;;8.03;70.93
56582;BME280;42463;52.214;21.238;2022-11-15T06:49:01;100462.05;;;8.02;70.63
56582;BME280;42463;52.214;21.238;2022-11-15T06:51:45;100464.35;;;7.98;70.34
56582;BME280;42463;52.214;21.238;2022-11-15T06:54:28;100466.68;;;7.96;70.51
56582;BME280;42463;52.214;21.238;2022-11-15T06:57:13;100466.56;;;7.94;70.55
56582;BME280;42463;52.214;21.238;2022-11-15T06:59:57;100464.33;;;7.93;70.71
56582;BME280;42463;52.214;21.238;2022-11-15T07:02:42;100465.30;;;7.93;71.00
56582;BME280;42463;52.214;21.238;2022-11-15T07:05:25;100470.44;;;7.93;71.01
56582;BME280;42463;52.214;21.238;2022-11-15T07:08:09;100474.33;;;7.93;70.92
56582;BME280;42463;52.214;21.238;2022-11-15T07:10:53;100471.94;;;7.93;70.95
56582;BME280;42463;52.214;21.238;2022-11-15T07:13:36;100469.01;;;7.92;70.94
56582;BME280;42463;52.214;21.238;2022-11-15T07:16:20;100467.31;;;7.93;70.83
56582;BME280;42463;52.214;21.238;2022-11-15T07:19:04;100466.61;;;7.93;70.90
56582;BME280;42463;52.214;21.238;2022-11-15T07:21:49;100458.84;;;7.89;70.73
56582;BME280;42463;52.214;21.238;2022-11-15T07:24:33;100458.30;;;7.89;71.31
56582;BME280;42463;52.214;21.238;2022-11-15T07:27:16;100463.73;;;7.88;71.12
56582;BME280;42463;52.214;21.238;2022-11-15T07:30:00;100460.58;;;7.92;71.45
56582;BME280;42463;52.214;21.238;2022-11-15T07:32:44;100461.46;;;7.97;71.47
56582;BME280;42463;52.214;21.238;2022-11-15T07:35:27;100465.20;;;8.00;71.14
56582;BME280;42463;52.214;21.238;2022-11-15T07:38:11;100459.46;;;8.03;71.11
56582;BME280;42463;52.214;21.238;2022-11-15T07:41:00;100457.02;;;8.02;71.13
56582;BME280;42463;52.214;21.238;2022-11-15T07:43:44;100458.13;;;8.03;70.92
56582;BME280;42463;52.214;21.238;2022-11-15T07:46:28;100455.21;;;8.03;70.99
56582;BME280;42463;52.214;21.238;2022-11-15T07:49:12;100454.36;;;8.01;70.92
56582;BME280;42463;52.214;21.238;2022-11-15T07:51:57;100448.85;;;8.01;70.69
56582;BME280;42463;52.214;21.238;2022-11-15T07:54:41;100454.02;;;7.95;70.72
56582;BME280;42463;52.214;21.238;2022-11-15T07:57:25;100453.27;;;7.91;70.44
56582;BME280;42463;52.214;21.238;2022-11-15T08:00:12;100451.25;;;7.93;70.83
56582;BME280;42463;52.214;21.238;2022-11-15T08:03:04;100446.20;;;7.94;70.79
56582;BME280;42463;52.214;21.238;2022-11-15T08:05:51;100444.79;;;7.93;70.86
56582;BME280;42463;52.214;21.238;2022-11-15T08:08:35;100440.12;;;7.92;70.80
56582;BME280;42463;52.214;21.238;2022-11-15T08:11:19;100439.95;;;7.90;70.92
56582;BME280;42463;52.214;21.238;2022-11-15T08:14:03;100434.79;;;7.91;70.95
56582;BME280;42463;52.214;21.238;2022-11-15T08:16:46;100428.66;;;7.92;70.95
56582;BME280;42463;52.214;21.238;2022-11-15T08:19:30;100427.51;;;7.93;70.89
56582;BME280;42463;52.214;21.238;2022-11-15T08:22:13;100419.21;;;7.92;70.93
56582;BME280;42463;52.214;21.238;2022-11-15T08:24:58;100421.98;;;7.93;70.82
56582;BME280;42463;52.214;21.238;2022-11-15T08:27:41;100419.27;;;7.94;70.92
56582;BME280;42463;52.214;21.238;2022-11-15T08:30:24;100416.64;;;7.98;71.32
56582;BME280;42463;52.214;21.238;2022-11-15T08:33:11;100417.43;;;8.08;71.45
56582;BME280;42463;52.214;21.238;2022-11-15T08:35:57;100415.19;;;8.11;70.80
56582;BME280;42463;52.214;21.238;2022-11-15T08:38:40;100413.85;;;8.12;70.50
56582;BME280;42463;52.214;21.238;2022-11-15T08:41:26;100410.60;;;8.12;70.36
56582;BME280;42463;52.214;21.238;2022-11-15T08:44:12;100410.79;;;8.13;70.26
56582;BME280;42463;52.214;21.238;2022-11-15T08:46:56;100405.52;;;8.11;70.53
56582;BME280;42463;52.214;21.238;2022-11-15T08:49:39;100407.08;;;8.11;70.59
56582;BME280;42463;52.214;21.238;2022-11-15T08:52:23;100403.66;;;8.10;70.67
56582;BME280;42463;52.214;21.238;2022-11-15T08:55:09;100399.48;;;8.09;70.46
56582;BME280;42463;52.214;21.238;2022-11-15T08:57:52;100401.47;;;8.12;70.43
56582;BME280;42463;52.214;21.238;2022-11-15T09:00:35;100404.20;;;8.10;70.59
56582;BME280;42463;52.214;21.238;2022-11-15T09:03:20;100399.77;;;8.13;70.63
56582;BME280;42463;52.214;21.238;2022-11-15T09:06:04;100398.55;;;8.12;70.21
56582;BME280;42463;52.214;21.238;2022-11-15T09:08:48;100398.48;;;8.09;70.14
56582;BME280;42463;52.214;21.238;2022-11-15T09:11:32;100398.56;;;8.05;70.01
56582;BME280;42463;52.214;21.238;2022-11-15T09:14:16;100395.66;;;8.05;70.44
56582;BME280;42463;52.214;21.238;2022-11-15T09:16:59;100396.62;;;8.05;70.20
56582;BME280;42463;52.214;21.238;2022-11-15T09:19:43;100392.70;;;8.03;70.19
56582;BME280;42463;52.214;21.238;2022-11-15T09:22:27;100388.34;;;8.05;70.56
56582;BME280;42463;52.214;21.238;2022-11-15T09:25:11;100380.92;;;8.08;70.35
56582;BME280;42463;52.214;21.238;2022-11-15T09:27:56;100379.13;;;8.10;70.44
56582;BME280;42463;52.214;21.238;2022-11-15T09:30:39;100375.69;;;8.14;70.23
56582;BME280;42463;52.214;21.238;2022-11-15T09:33:23;100368.66;;;8.14;70.07
56582;BME280;42463;52.214;21.238;2022-11-15T09:36:08;100367.02;;;8.11;70.14
56582;BME280;42463;52.214;21.238;2022-11-15T09:38:53;100363.30;;;8.16;70.15
56582;BME280;42463;52.214;21.238;2022-11-15T09:41:58;100357.14;;;8.16;70.01
56582;BME280;42463;52.214;21.238;2022-11-15T09:44:59;100353.04;;;8.22;69.93
56582;BME280;42463;52.214;21.238;2022-11-15T09:47:59;100353.80;;;8.28;69.95
56582;BME280;42463;52.214;21.238;2022-11-15T09:50:47;100345.82;;;8.37;69.66
56582;BME280;42463;52.214;21.238;2022-11-15T09:53:22;100338.92;;;8.41;69.58
56582;BME280;42463;52.214;21.238;2022-11-15T09:55:51;100335.69;;;8.44;69.41
56582;BME280;42463;52.214;21.238;2022-11-15T09:58:26;100335.08;;;8.43;69.29
56582;BME280;42463;52.214;21.238;2022-11-15T10:00:54;100331.23;;;8.46;69.42
56582;BME280;42463;52.214;21.238;2022-11-15T10:03:27;100329.69;;;8.48;69.27
56582;BME280;42463;52.214;21.238;2022-11-15T10:05:56;100325.85;;;8.45;69.26
56582;BME280;42463;52.214;21.238;2022-11-15T10:08:35;100324.92;;;8.41;69.36
56582;BME280;42463;52.214;21.238;2022-11-15T10:11:06;100322.18;;;8.45;69.24
56582;BME280;42463;52.214;21.238;2022-11-15T10:13:34;100321.62;;;8.50;69.30
56582;BME280;42463;52.214;21.238;2022-11-15T10:16:07;100319.86;;;8.54;69.27
56582;BME280;42463;52.214;21.238;2022-11-15T10:18:39;100322.72;;;8.51;68.80
56582;BME280;42463;52.214;21.238;2022-11-15T10:21:15;100326.55;;;8.41;68.41
56582;BME280;42463;52.214;21.238;2022-11-15T10:23:42;100326.29;;;8.34;69.04
56582;BME280;42463;52.214;21.238;2022-11-15T10:26:11;100322.96;;;8.37;68.92
56582;BME280;42463;52.214;21.238;2022-11-15T10:28:38;100323.02;;;8.35;69.34
56582;BME280;42463;52.214;21.238;2022-11-15T10:31:23;100324.10;;;8.38;69.20
56582;BME280;42463;52.214;21.238;2022-11-15T10:33:48;100314.06;;;8.36;69.30
56582;BME280;42463;52.214;21.238;2022-11-15T10:36:19;100316.17;;;8.44;69.34
56582;BME280;42463;52.214;21.238;2022-11-15T10:38:55;100315.32;;;8.45;69.04
56582;BME280;42463;52.214;21.238;2022-11-15T10:41:21;100313.38;;;8.45;68.72
56582;BME280;42463;52.214;21.238;2022-11-15T10:44:07;100313.29;;;8.43;69.01
56582;BME280;42463;52.214;21.238;2022-11-15T10:46:33;100310.80;;;8.43;68.72
56582;BME280;42463;52.214;21.238;2022-11-15T10:49:13;100304.39;;;8.45;68.79
56582;BME280;42463;52.214;21.238;2022-11-15T10:51:42;100296.55;;;8.45;68.92
56582;BME280;42463;52.214;21.238;2022-11-15T10:54:11;100297.45;;;8.50;68.94
56582;BME280;42463;52.214;21.238;2022-11-15T10:56:36;100294.91;;;8.52;68.70
56582;BME280;42463;52.214;21.238;2022-11-15T10:59:01;100297.50;;;8.50;68.66
56582;BME280;42463;52.214;21.238;2022-11-15T11:01:27;100292.73;;;8.49;68.56
56582;BME280;42463;52.214;21.238;2022-11-15T11:04:04;100294.61;;;8.45;68.33
56582;BME280;42463;52.214;21.238;2022-11-15T11:06:30;100289.61;;;8.44;68.73
56582;BME280;42463;52.214;21.238;2022-11-15T11:08:59;100289.71;;;8.43;68.57
56582;BME280;42463;52.214;21.238;2022-11-15T11:11:24;100283.75;;;8.45;68.77
56582;BME280;42463;52.214;21.238;2022-11-15T11:13:49;100277.73;;;8.48;68.72
56582;BME280;42463;52.214;21.238;2022-11-15T11:16:42;100272.76;;;8.51;68.97
56582;BME280;42463;52.214;21.238;2022-11-15T11:19:16;100269.80;;;8.55;68.90
56582;BME280;42463;52.214;21.238;2022-11-15T11:21:49;100267.73;;;8.58;68.48
56582;BME280;42463;52.214;21.238;2022-11-15T11:24:21;100266.85;;;8.56;68.43
56582;BME280;42463;52.214;21.238;2022-11-15T11:27:05;100270.33;;;8.57;68.26
56582;BME280;42463;52.214;21.238;2022-11-15T11:29:44;100269.68;;;8.54;68.37
56582;BME280;42463;52.214;21.238;2022-11-15T11:32:28;100270.47;;;8.56;68.65
56582;BME280;42463;52.214;21.238;2022-11-15T11:35:01;100268.47;;;8.56;68.58
56582;BME280;42463;52.214;21.238;2022-11-15T11:37:33;100266.75;;;8.57;68.61
56582;BME280;42463;52.214;21.238;2022-11-15T11:40:10;100270.19;;;8.58;68.41
56582;BME280;42463;52.214;21.238;2022-11-15T11:42:43;100263.39;;;8.60;68.52
56582;BME280;42463;52.214;21.238;2022-11-15T11:45:18;100260.91;;;8.59;68.29
56582;BME280;42463;52.214;21.238;2022-11-15T11:47:51;100256.34;;;8.58;68.43
56582;BME280;42463;52.214;21.238;2022-11-15T11:50:19;100251.80;;;8.58;68.14
56582;BME280;42463;52.214;21.238;2022-11-15T11:52:49;100251.06;;;8.57;68.34
56582;BME280;42463;52.214;21.238;2022-11-15T11:55:22;100251.09;;;8.58;68.45
56582;BME280;42463;52.214;21.238;2022-11-15T11:57:53;100243.05;;;8.59;68.74
56582;BME280;42463;52.214;21.238;2022-11-15T12:00:23;100240.45;;;8.59;68.73
56582;BME280;42463;52.214;21.238;2022-11-15T12:02:54;100234.20;;;8.57;68.59
56582;BME280;42463;52.214;21.238;2022-11-15T12:05:29;100227.45;;;8.57;68.55
56582;BME280;42463;52.214;21.238;2022-11-15T12:07:59;100221.54;;;8.57;68.50
56582;BME280;42463;52.214;21.238;2022-11-15T12:10:30;100222.25;;;8.60;68.95
56582;BME280;42463;52.214;21.238;2022-11-15T12:13:02;100214.02;;;8.63;68.96
56582;BME280;42463;52.214;21.238;2022-11-15T12:15:31;100209.95;;;8.62;68.55
56582;BME280;42463;52.214;21.238;2022-11-15T12:17:58;100208.52;;;8.65;68.73
56582;BME280;42463;52.214;21.238;2022-11-15T12:20:26;100207.87;;;8.64;68.71
56582;BME280;42463;52.214;21.238;2022-11-15T12:22:55;100207.67;;;8.62;68.41
56582;BME280;42463;52.214;21.238;2022-11-15T12:25:23;100208.91;;;8.61;68.61
56582;BME280;42463;52.214;21.238;2022-11-15T12:27:54;100206.92;;;8.62;68.65
56582;BME280;42463;52.214;21.238;2022-11-15T12:30:21;100208.85;;;8.61;68.48
56582;BME280;42463;52.214;21.238;2022-11-15T12:32:54;100205.96;;;8.59;68.54
56582;BME280;42463;52.214;21.238;2022-11-15T12:35:30;100204.29;;;8.60;68.63
56582;BME280;42463;52.214;21.238;2022-11-15T12:37:57;100195.85;;;8.59;68.93
56582;BME280;42463;52.214;21.238;2022-11-15T12:40:27;100192.96;;;8.62;69.15
56582;BME280;42463;52.214;21.238;2022-11-15T12:45:46;100191.73;;;8.70;69.05
56582;BME280;42463;52.214;21.238;2022-11-15T12:48:48;100193.11;;;8.72;68.99
56582;BME280;42463;52.214;21.238;2022-11-15T12:51:12;100190.28;;;8.74;68.92
56582;BME280;42463;52.214;21.238;2022-11-15T12:53:37;100192.24;;;8.75;68.96
56582;BME280;42463;52.214;21.238;2022-11-15T12:56:23;100186.84;;;8.75;68.94
56582;BME280;42463;52.214;21.238;2022-11-15T12:58:50;100188.36;;;8.76;68.88
56582;BME280;42463;52.214;21.238;2022-11-15T13:04:15;100180.16;;;8.78;68.91
56582;BME280;42463;52.214;21.238;2022-11-15T13:06:49;100175.80;;;8.79;68.96
56582;BME280;42463;52.214;21.238;2022-11-15T13:09:54;100175.77;;;8.81;68.78
56582;BME280;42463;52.214;21.238;2022-11-15T13:15:43;100175.52;;;8.82;68.37
56582;BME280;42463;52.214;21.238;2022-11-15T13:18:35;100170.14;;;8.84;68.75
56582;BME280;42463;52.214;21.238;2022-11-15T13:21:03;100173.45;;;8.85;68.65
56582;BME280;42463;52.214;21.238;2022-11-15T13:23:55;100171.26;;;8.82;68.46
56582;BME280;42463;52.214;21.238;2022-11-15T13:26:19;100167.89;;;8.82;68.81
56582;BME280;42463;52.214;21.238;2022-11-15T13:28:47;100162.30;;;8.84;68.97
56582;BME280;42463;52.214;21.238;2022-11-15T13:31:21;100165.00;;;8.87;68.98
56582;BME280;42463;52.214;21.238;2022-11-15T13:33:47;100165.75;;;8.87;68.67
56582;BME280;42463;52.214;21.238;2022-11-15T13:36:18;100165.06;;;8.88;68.80
56582;BME280;42463;52.214;21.238;2022-11-15T13:38:44;100157.29;;;8.89;68.68
56582;BME280;42463;52.214;21.238;2022-11-15T13:41:22;100157.74;;;8.91;68.92
56582;BME280;42463;52.214;21.238;2022-11-15T13:43:47;100156.45;;;8.92;68.82
56582;BME280;42463;52.214;21.238;2022-11-15T13:46:17;100156.84;;;8.92;68.61
56582;BME280;42463;52.214;21.238;2022-11-15T13:48:44;100154.89;;;8.92;68.68
56582;BME280;42463;52.214;21.238;2022-11-15T13:51:14;100151.90;;;8.91;68.50
56582;BME280;42463;52.214;21.238;2022-11-15T13:53:44;100147.20;;;8.88;68.47
56582;BME280;42463;52.214;21.238;2022-11-15T13:56:10;100142.39;;;8.84;68.31
56582;BME280;42463;52.214;21.238;2022-11-15T13:58:38;100135.88;;;8.82;68.58
56582;BME280;42463;52.214;21.238;2022-11-15T14:01:05;100136.63;;;8.82;68.46
56582;BME280;42463;52.214;21.238;2022-11-15T14:03:31;100133.48;;;8.81;68.64
56582;BME280;42463;52.214;21.238;2022-11-15T14:06:08;100132.07;;;8.81;68.80
56582;BME280;42463;52.214;21.238;2022-11-15T14:08:35;100142.45;;;8.84;68.74
56582;BME280;42463;52.214;21.238;2022-11-15T14:11:16;100139.16;;;8.85;68.64
56582;BME280;42463;52.214;21.238;2022-11-15T14:13:42;100145.39;;;8.86;68.71
56582;BME280;42463;52.214;21.238;2022-11-15T14:16:35;100143.95;;;8.87;68.81
56582;BME280;42463;52.214;21.238;2022-11-15T14:19:00;100140.77;;;8.89;68.71